Time;durP1;ratioP1;P1;durP2;ratioP2;P2;SDS_P1;SDS_P2;PMS_P1;PMS_P2;Temp;Humidity;BMP_temperature;BMP_pressure;BME280_temperature;BME280_humidity;BME280_pressure;Samples;Min_cycle;Max_cycle;Signal;HPM_P1;HPM_P2
2021/07/04 00:01:26;;;;;;;4.95;3.97;;;;;;;19.24;68.22;99424.19;5082824;28;20032;-73
2021/07/04 00:03:52;;;;;;;5.53;4.35;;;;;;;19.22;68.19;99405.91;5082468;28;20027;-73
2021/07/04 00:06:18;;;;;;;5.28;4.10;;;;;;;19.28;68.46;99400.28;5082181;28;20416;-73
2021/07/04 00:08:44;;;;;;;7.75;3.88;;;;;;;19.31;68.37;99415.84;5082505;28;20138;-73
2021/07/04 00:11:10;;;;;;;5.13;4.15;;;;;;;19.37;68.26;99411.13;5082556;28;20020;-72
2021/07/04 00:13:37;;;;;;;4.78;3.85;;;;;;;19.34;68.70;99412.19;5077604;28;20050;-74
2021/07/04 00:16:04;;;;;;;6.65;4.30;;;;;;;19.34;68.42;99409.56;5082817;28;20041;-75
2021/07/04 00:18:32;;;;;;;5.22;4.00;;;;;;;19.36;68.25;99410.28;5082703;28;20055;-71
2021/07/04 00:20:59;;;;;;;5.13;4.28;;;;;;;19.38;68.60;99415.44;5082433;28;20055;-73
2021/07/04 00:23:26;;;;;;;6.25;4.50;;;;;;;19.37;68.66;99419.00;5077616;28;20059;-73
2021/07/04 00:25:53;;;;;;;4.68;3.85;;;;;;;19.33;68.47;99422.78;5082679;28;20325;-73
2021/07/04 00:28:22;;;;;;;7.28;4.03;;;;;;;19.33;68.87;99422.78;5082519;28;20048;-74
2021/07/04 00:30:48;;;;;;;6.70;3.90;;;;;;;19.10;68.22;99422.44;5082583;28;20040;-76
2021/07/04 00:33:29;;;;;;;9.70;4.03;;;;;;;19.22;68.65;99429.53;5077739;28;20048;-74
2021/07/04 00:35:55;;;;;;;8.18;4.43;;;;;;;19.13;69.00;99417.81;5082387;28;20146;-74
2021/07/04 00:38:21;;;;;;;4.75;3.67;;;;;;;19.11;68.40;99426.72;5082352;28;20328;-74
2021/07/04 00:40:48;;;;;;;5.80;4.18;;;;;;;19.16;68.36;99429.91;5082685;28;20277;-73
2021/07/04 00:43:14;;;;;;;5.53;4.20;;;;;;;19.09;68.38;99412.84;5077720;28;20057;-74
2021/07/04 00:45:40;;;;;;;4.22;3.53;;;;;;;19.18;68.36;99427.19;5082641;28;20329;-76
2021/07/04 00:48:08;;;;;;;5.95;4.43;;;;;;;19.13;68.28;99422.22;5082343;28;20031;-73
2021/07/04 00:50:35;;;;;;;8.95;4.18;;;;;;;19.18;68.75;99430.66;5082333;28;20468;-73
2021/07/04 00:53:02;;;;;;;5.55;4.47;;;;;;;19.12;68.62;99429.25;5061075;28;20048;-74
2021/07/04 00:55:28;;;;;;;4.70;4.30;;;;;;;19.13;68.63;99437.97;5081124;28;20276;-72
2021/07/04 00:57:54;;;;;;;4.65;4.18;;;;;;;19.22;68.43;99441.81;5082374;28;20067;-73
2021/07/04 01:00:23;;;;;;;6.93;4.57;;;;;;;19.20;69.38;99443.72;5064537;28;20320;-73
2021/07/04 01:02:50;;;;;;;4.68;3.78;;;;;;;19.24;68.94;99432.91;5080635;28;20051;-74
2021/07/04 01:05:19;;;;;;;6.05;4.00;;;;;;;19.25;69.08;99439.00;5079397;28;20064;-73
2021/07/04 01:07:45;;;;;;;7.82;4.15;;;;;;;19.28;68.94;99438.81;5096493;28;20070;-74
2021/07/04 01:10:15;;;;;;;4.90;4.40;;;;;;;18.96;69.17;99387.34;5101987;28;20249;-73
2021/07/04 01:12:44;;;;;;;4.22;3.83;;;;;;;18.99;69.38;99404.69;5101726;28;20050;-72
2021/07/04 01:15:10;;;;;;;4.78;4.20;;;;;;;19.22;69.45;99441.81;5082318;28;20047;-71
2021/07/04 01:17:38;;;;;;;5.40;4.55;;;;;;;19.16;69.23;99419.41;5074266;28;20040;-73
2021/07/04 01:20:11;;;;;;;4.90;4.50;;;;;;;19.24;69.69;99439.94;5087604;28;20303;-73
2021/07/04 01:22:39;;;;;;;10.65;4.57;;;;;;;19.23;69.88;99428.59;5079597;28;20040;-73
2021/07/04 01:25:10;;;;;;;6.93;4.43;;;;;;;19.12;70.06;99445.00;5086057;28;20040;-75
2021/07/04 01:27:36;;;;;;;7.05;4.20;;;;;;;19.06;70.09;99427.00;5105567;28;20044;-74
2021/07/04 01:30:09;;;;;;;5.65;4.15;;;;;;;19.18;69.24;99445.56;5103618;28;20114;-74
2021/07/04 01:32:43;;;;;;;8.27;4.57;;;;;;;18.79;70.13;99440.81;5091362;28;20063;-76
2021/07/04 01:35:09;;;;;;;7.38;4.75;;;;;;;18.85;69.98;99450.09;5086165;28;20051;-75
2021/07/04 01:37:35;;;;;;;5.45;4.90;;;;;;;18.89;69.87;99450.81;5105263;28;20047;-72
2021/07/04 01:40:02;;;;;;;5.38;4.35;;;;;;;18.99;69.90;99448.47;5104157;28;20051;-72
2021/07/04 01:42:28;;;;;;;5.63;4.53;;;;;;;18.76;70.85;99440.16;5086707;28;20044;-75
2021/07/04 01:44:54;;;;;;;9.95;4.95;;;;;;;18.71;71.19;99445.69;5085652;28;20040;-74
2021/07/04 01:47:20;;;;;;;6.18;4.47;;;;;;;18.79;70.40;99447.84;5086086;28;20195;-74
2021/07/04 01:49:45;;;;;;;8.88;4.82;;;;;;;18.74;70.45;99436.78;5071769;28;20041;-73
2021/07/04 01:52:11;;;;;;;7.55;4.75;;;;;;;18.66;70.57;99429.38;5082773;28;20021;-74
2021/07/04 01:54:38;;;;;;;6.28;4.75;;;;;;;18.86;70.56;99440.47;5085631;28;20391;-74
2021/07/04 01:57:11;;;;;;;7.78;5.03;;;;;;;18.68;71.05;99445.00;5092881;28;20094;-74
2021/07/04 01:59:41;;;;;;;6.32;5.00;;;;;;;18.75;70.42;99457.66;5093494;28;20265;-74
2021/07/04 02:02:08;;;;;;;7.97;4.88;;;;;;;18.76;70.42;99440.16;5085562;28;20281;-73
2021/07/04 02:04:42;;;;;;;5.90;4.70;;;;;;;18.79;70.56;99421.63;5093284;28;20066;-73
2021/07/04 02:07:18;;;;;;;7.80;5.38;;;;;;;18.71;71.08;99450.06;5097411;28;20064;-77
2021/07/04 02:09:49;;;;;;;6.45;4.80;;;;;;;18.86;71.10;99454.41;5085507;28;20056;-73
2021/07/04 02:12:18;;;;;;;10.43;4.78;;;;;;;18.54;72.01;99461.56;5102601;28;20062;-75
2021/07/04 02:14:45;;;;;;;5.78;4.70;;;;;;;18.69;71.63;99462.47;5088768;28;20048;-75
2021/07/04 02:17:11;;;;;;;6.40;4.85;;;;;;;18.60;71.93;99456.81;5085282;28;20052;-75
2021/07/04 02:19:39;;;;;;;7.35;5.07;;;;;;;18.71;71.27;99461.44;5085326;28;20048;-74
2021/07/04 02:22:07;;;;;;;7.35;4.75;;;;;;;18.39;71.73;99416.94;5084854;28;20052;-74
2021/07/04 02:24:34;;;;;;;6.53;5.00;;;;;;;18.71;72.11;99468.44;5084809;28;20051;-74
2021/07/04 02:27:01;;;;;;;5.72;4.68;;;;;;;18.79;71.74;99464.44;5085087;28;20063;-75
2021/07/04 02:29:28;;;;;;;7.00;5.22;;;;;;;18.72;72.09;99472.75;5084921;28;20063;-74
2021/07/04 02:31:54;;;;;;;7.50;4.80;;;;;;;18.62;72.18;99475.91;5084556;28;20059;-73
2021/07/04 02:34:20;;;;;;;5.40;4.60;;;;;;;18.71;72.09;99479.81;5084783;28;20017;-74
2021/07/04 02:36:46;;;;;;;5.90;4.57;;;;;;;18.74;72.72;99474.38;5097578;28;20040;-73
2021/07/04 02:39:13;;;;;;;7.28;4.72;;;;;;;18.85;71.89;99480.75;5104166;28;20147;-73
2021/07/04 02:41:41;;;;;;;9.82;4.65;;;;;;;18.46;72.69;99449.72;5104551;28;20064;-75
2021/07/04 02:44:08;;;;;;;8.57;5.15;;;;;;;18.62;72.36;99485.56;5093548;28;20329;-76
2021/07/04 02:46:34;;;;;;;7.82;4.85;;;;;;;18.62;72.63;99488.19;5084586;28;20052;-75
2021/07/04 02:49:00;;;;;;;8.40;4.65;;;;;;;18.48;73.16;99485.53;5068572;28;20056;-74
2021/07/04 02:51:26;;;;;;;8.00;4.80;;;;;;;18.51;72.68;99487.97;5093729;28;20016;-75
2021/07/04 02:53:52;;;;;;;5.88;4.22;;;;;;;18.43;74.05;99489.25;5095547;28;20047;-76
2021/07/04 02:56:18;;;;;;;7.55;4.70;;;;;;;18.54;72.87;99488.66;5101442;28;20246;-75
2021/07/04 02:58:44;;;;;;;6.93;4.57;;;;;;;18.54;72.87;99495.66;5099230;28;20282;-73
2021/07/04 03:01:09;;;;;;;6.03;4.15;;;;;;;18.56;73.01;99494.63;5092642;28;20341;-73
2021/07/04 03:03:35;;;;;;;6.40;4.38;;;;;;;18.61;73.45;99499.59;5097493;28;20020;-73
2021/07/04 03:06:01;;;;;;;5.45;4.47;;;;;;;18.70;73.13;99496.47;5084190;28;20024;-73
2021/07/04 03:08:27;;;;;;;4.95;4.15;;;;;;;18.68;72.96;99500.09;5083726;28;20044;-74
2021/07/04 03:10:53;;;;;;;6.63;4.85;;;;;;;18.23;73.95;99486.94;5083631;28;20313;-80
2021/07/04 03:13:19;;;;;;;6.45;4.38;;;;;;;18.53;74.25;99496.59;5081276;28;20024;-74
2021/07/04 03:15:45;;;;;;;8.60;4.70;;;;;;;18.57;74.14;99498.09;5083670;28;20028;-75
2021/07/04 03:18:10;;;;;;;8.25;4.78;;;;;;;18.56;73.89;99496.44;5083578;28;20016;-74
2021/07/04 03:20:36;;;;;;;6.38;4.47;;;;;;;18.66;73.28;99496.75;5067357;28;20032;-73
2021/07/04 03:23:02;;;;;;;6.20;4.57;;;;;;;18.34;74.15;99492.41;5082087;28;20248;-76
2021/07/04 03:25:28;;;;;;;7.93;4.00;;;;;;;18.60;74.21;99504.03;5082502;28;20083;-74
2021/07/04 03:27:54;;;;;;;6.47;4.35;;;;;;;18.52;74.18;99502.78;5083497;28;20028;-75
2021/07/04 03:30:22;;;;;;;7.55;4.40;;;;;;;18.49;74.19;99502.97;5083503;28;20083;-78
2021/07/04 03:32:49;;;;;;;6.65;4.22;;;;;;;18.14;75.52;99506.63;5083201;28;20036;-76
2021/07/04 03:35:16;;;;;;;7.10;4.40;;;;;;;18.25;75.33;99503.41;5080300;28;20056;-74
2021/07/04 03:37:44;;;;;;;7.22;4.22;;;;;;;18.05;76.18;99515.00;5083470;28;20036;-79
2021/07/04 03:40:13;;;;;;;4.90;3.85;;;;;;;17.96;75.68;99463.09;5083371;28;20044;-75
2021/07/04 03:42:39;;;;;;;4.45;3.88;;;;;;;18.22;75.89;99509.66;5068016;28;20052;-77
2021/07/04 03:45:06;;;;;;;7.40;4.20;;;;;;;18.35;75.47;99514.22;5080840;28;20083;-74
2021/07/04 03:47:32;;;;;;;6.38;4.20;;;;;;;18.29;75.41;99510.16;5083169;28;20048;-76
2021/07/04 03:49:59;;;;;;;4.57;3.92;;;;;;;18.36;75.46;99511.50;5082889;28;20040;-75
2021/07/04 03:52:25;;;;;;;5.78;4.65;;;;;;;18.31;75.33;99504.84;5065353;28;20040;-74
2021/07/04 03:54:51;;;;;;;6.03;3.88;;;;;;;18.34;75.90;99526.50;5080828;28;20040;-75
2021/07/04 03:57:23;;;;;;;6.60;4.20;;;;;;;18.17;76.33;99516.09;5082964;28;20023;-76
2021/07/04 03:59:55;;;;;;;6.63;4.10;;;;;;;18.09;75.82;99482.47;5078847;28;20299;-74
2021/07/04 04:02:22;;;;;;;6.00;4.00;;;;;;;18.20;76.61;99531.63;5083131;28;20043;-77
2021/07/04 04:04:49;;;;;;;5.10;3.70;;;;;;;18.24;76.72;99534.03;5080802;28;20052;-77
2021/07/04 04:07:14;;;;;;;6.90;4.60;;;;;;;17.94;77.33;99542.66;5082234;28;20071;-78
2021/07/04 04:09:42;;;;;;;4.53;3.65;;;;;;;18.29;76.83;99544.25;5102841;28;20016;-74
2021/07/04 04:12:09;;;;;;;7.60;4.05;;;;;;;18.22;76.84;99543.75;5102907;28;20115;-74
2021/07/04 04:14:36;;;;;;;4.88;3.92;;;;;;;18.29;76.57;99539.00;5088743;28;20040;-74
2021/07/04 04:17:03;;;;;;;4.00;3.60;;;;;;;18.39;76.01;99548.03;5083073;28;20067;-74
2021/07/04 04:19:29;;;;;;;7.18;3.88;;;;;;;18.46;75.51;99536.28;5083061;28;20044;-73
2021/07/04 04:21:55;;;;;;;4.40;4.00;;;;;;;18.52;75.49;99548.19;5097328;28;20074;-74
2021/07/04 04:24:20;;;;;;;7.70;3.70;;;;;;;18.45;76.27;99552.97;5100753;28;20273;-76
2021/07/04 04:26:46;;;;;;;4.20;3.65;;;;;;;18.08;77.32;99556.75;5097701;28;20133;-76
2021/07/04 04:29:13;;;;;;;7.07;3.50;;;;;;;17.96;77.74;99558.28;5082931;28;20019;-77
2021/07/04 04:31:39;;;;;;;7.38;3.90;;;;;;;17.93;77.88;99551.44;5082937;28;20046;-76
2021/07/04 04:34:05;;;;;;;6.10;4.00;;;;;;;18.18;77.37;99555.31;5082708;28;20047;-73
2021/07/04 04:36:31;;;;;;;7.28;3.60;;;;;;;18.14;77.61;99543.31;5083272;28;20032;-75
2021/07/04 04:38:57;;;;;;;4.93;3.58;;;;;;;18.00;78.04;99559.81;5082756;28;20025;-75
2021/07/04 04:41:22;;;;;;;4.43;3.17;;;;;;;17.99;77.75;99565.16;5082876;28;20317;-76
2021/07/04 04:43:48;;;;;;;3.60;3.30;;;;;;;18.33;76.89;99569.38;5082490;28;20217;-75
2021/07/04 04:46:14;;;;;;;5.70;3.80;;;;;;;18.17;77.06;99574.63;5082672;28;20012;-78
2021/07/04 04:48:40;;;;;;;4.75;3.70;;;;;;;18.18;77.81;99568.44;5082656;28;20017;-74
2021/07/04 04:51:06;;;;;;;4.90;3.50;;;;;;;17.88;79.18;99578.78;5082444;28;20035;-78
2021/07/04 04:53:32;;;;;;;4.55;3.97;;;;;;;17.76;79.16;99578.50;5083529;28;20067;-77
2021/07/04 04:55:58;;;;;;;4.57;3.05;;;;;;;18.06;78.46;99577.81;5092916;28;20336;-75
2021/07/04 04:58:24;;;;;;;5.60;3.88;;;;;;;18.16;78.01;99582.56;5105904;28;20024;-77
2021/07/04 05:00:50;;;;;;;7.32;3.53;;;;;;;18.14;77.90;99574.75;5106356;28;20020;-78
2021/07/04 05:03:16;;;;;;;4.03;3.25;;;;;;;17.88;78.87;99584.00;5104025;28;20051;-74
2021/07/04 05:05:41;;;;;;;6.28;3.50;;;;;;;17.88;79.54;99584.84;5086563;28;20024;-79
2021/07/04 05:08:07;;;;;;;6.22;3.55;;;;;;;17.85;78.94;99584.19;5086920;28;20395;-77
2021/07/04 05:10:33;;;;;;;5.13;3.45;;;;;;;17.82;79.31;99576.50;5086016;28;20070;-79
2021/07/04 05:12:59;;;;;;;5.28;3.72;;;;;;;17.94;79.13;99584.56;5087279;28;20340;-77
2021/07/04 05:15:25;;;;;;;4.68;3.25;;;;;;;17.87;79.04;99582.31;5084615;28;20048;-77
2021/07/04 05:17:51;;;;;;;6.40;3.85;;;;;;;17.69;79.77;99579.75;5086186;28;20044;-75
2021/07/04 05:20:17;;;;;;;6.05;3.22;;;;;;;17.93;79.21;99582.03;5085906;28;20021;-77
2021/07/04 05:22:43;;;;;;;4.25;3.85;;;;;;;17.72;80.33;99584.81;5086103;28;20059;-78
2021/07/04 05:25:10;;;;;;;5.03;3.38;;;;;;;17.69;79.36;99594.63;5085757;28;20024;-72
2021/07/04 05:27:36;;;;;;;3.72;3.10;;;;;;;17.67;79.54;99570.28;5069668;28;20380;-79
2021/07/04 05:30:03;;;;;;;5.95;3.58;;;;;;;17.79;79.74;99589.75;5085861;28;20095;-74
2021/07/04 05:32:29;;;;;;;3.80;3.50;;;;;;;17.68;80.28;99593.75;5085768;28;20055;-78
2021/07/04 05:34:55;;;;;;;6.72;3.40;;;;;;;17.93;79.22;99585.50;5084797;28;20029;-75
2021/07/04 05:37:21;;;;;;;5.35;3.42;;;;;;;18.00;79.56;99583.41;5086227;28;20024;-77
2021/07/04 05:39:47;;;;;;;3.40;3.10;;;;;;;17.92;79.80;99580.34;5085883;28;20351;-77
2021/07/04 05:42:13;;;;;;;3.35;3.00;;;;;;;18.09;79.39;99588.13;5085431;28;20093;-76
2021/07/04 05:44:39;;;;;;;5.45;3.42;;;;;;;18.15;78.67;99584.31;5084877;28;20066;-75
2021/07/04 05:47:06;;;;;;;3.53;3.15;;;;;;;18.37;78.42;99577.91;5085152;28;20016;-75
2021/07/04 05:49:32;;;;;;;4.50;3.13;;;;;;;18.35;77.61;99580.59;5085430;28;20062;-77
2021/07/04 05:51:57;;;;;;;5.75;3.17;;;;;;;18.24;78.04;99570.72;5085161;28;20025;-76
2021/07/04 05:54:24;;;;;;;3.90;3.10;;;;;;;18.13;78.23;99582.72;5084503;28;20048;-77
2021/07/04 05:56:50;;;;;;;4.15;2.88;;;;;;;18.38;77.68;99587.47;5085417;28;20252;-77
2021/07/04 05:59:16;;;;;;;3.65;2.78;;;;;;;18.52;76.99;99594.56;5084904;28;20083;-74
2021/07/04 06:01:42;;;;;;;4.05;2.85;;;;;;;18.27;77.34;99602.03;5085196;28;20020;-73
2021/07/04 06:04:08;;;;;;;4.40;2.80;;;;;;;18.16;76.99;99598.31;5084338;28;20088;-76
2021/07/04 06:06:34;;;;;;;3.42;3.13;;;;;;;18.31;77.40;99596.59;5061246;28;20357;-73
2021/07/04 06:09:00;;;;;;;3.20;2.90;;;;;;;18.40;76.33;99590.88;5064840;28;20025;-74
2021/07/04 06:11:25;;;;;;;5.10;2.70;;;;;;;18.73;75.75;99603.03;5046693;28;20095;-74
2021/07/04 06:13:51;;;;;;;4.97;2.60;;;;;;;18.76;75.05;99603.66;5068955;28;20012;-76
2021/07/04 06:16:17;;;;;;;4.40;2.95;;;;;;;18.84;75.13;99599.75;5079419;28;20027;-74
2021/07/04 06:18:43;;;;;;;4.32;2.70;;;;;;;18.66;75.35;99594.63;5079331;28;20029;-77
2021/07/04 06:21:09;;;;;;;4.32;2.60;;;;;;;18.82;75.55;99599.03;5080086;28;20302;-72
2021/07/04 06:23:35;;;;;;;3.17;2.75;;;;;;;18.87;75.26;99589.13;5060053;28;20293;-74
2021/07/04 06:26:01;;;;;;;3.80;2.55;;;;;;;18.80;74.33;99578.94;5080299;28;20044;-78
2021/07/04 06:28:26;;;;;;;2.50;2.30;;;;;;;19.06;74.10;99584.50;5077764;28;20253;-74
2021/07/04 06:30:52;;;;;;;3.65;2.30;;;;;;;18.92;73.57;99582.66;5079876;28;20299;-72
2021/07/04 06:33:18;;;;;;;3.30;2.33;;;;;;;18.99;73.81;99587.59;5078445;28;20044;-75
2021/07/04 06:35:44;;;;;;;3.90;2.28;;;;;;;18.75;74.33;99585.41;5078703;28;20061;-78
2021/07/04 06:38:10;;;;;;;3.97;2.58;;;;;;;18.89;73.64;99584.66;5080508;28;20062;-75
2021/07/04 06:40:36;;;;;;;2.92;2.58;;;;;;;18.99;73.96;99591.03;5077789;28;20036;-75
2021/07/04 06:43:02;;;;;;;4.55;2.15;;;;;;;18.58;73.90;99594.22;5079927;28;20019;-73
2021/07/04 06:45:27;;;;;;;6.43;2.38;;;;;;;18.61;73.57;99599.28;5077633;28;20016;-76
2021/07/04 06:47:53;;;;;;;2.63;2.42;;;;;;;18.82;73.74;99604.28;5079730;28;20040;-75
2021/07/04 06:50:20;;;;;;;3.03;2.40;;;;;;;19.05;72.92;99603.81;5060148;28;20075;-75
2021/07/04 06:52:47;;;;;;;2.83;2.10;;;;;;;19.12;73.85;99605.13;5078823;28;20290;-74
2021/07/04 06:55:13;;;;;;;2.75;2.53;;;;;;;19.30;72.61;99602.38;5078876;28;20051;-77
2021/07/04 06:57:39;;;;;;;2.88;2.40;;;;;;;19.21;72.00;99595.03;5077825;28;20210;-76
2021/07/04 07:00:07;;;;;;;3.50;2.20;;;;;;;19.18;72.57;99603.09;5078899;28;20027;-76
2021/07/04 07:02:34;;;;;;;2.03;1.92;;;;;;;19.29;72.27;99600.69;5078416;28;20040;-76
2021/07/04 07:04:59;;;;;;;2.85;2.58;;;;;;;19.20;72.14;99598.63;5079929;28;20040;-75
2021/07/04 07:07:25;;;;;;;2.65;2.22;;;;;;;19.28;71.34;99588.47;5078230;28;20132;-76
2021/07/04 07:09:51;;;;;;;6.82;4.03;;;;;;;19.45;71.15;99595.38;5058564;28;20017;-77
2021/07/04 07:12:18;;;;;;;4.85;2.95;;;;;;;19.35;70.88;99586.34;5078119;28;20305;-76
2021/07/04 07:14:44;;;;;;;2.85;2.30;;;;;;;19.31;70.94;99601.44;5078278;28;20317;-76
2021/07/04 07:17:10;;;;;;;3.15;2.20;;;;;;;19.43;70.88;99598.09;5078938;28;20039;-75
2021/07/04 07:19:36;;;;;;;3.63;2.35;;;;;;;19.24;71.66;99592.22;5076823;28;20039;-75
2021/07/04 07:22:03;;;;;;;3.10;2.42;;;;;;;19.24;70.87;99597.47;5079059;28;20063;-76
2021/07/04 07:24:29;;;;;;;2.63;2.17;;;;;;;19.33;71.61;99594.31;5076651;28;20043;-75
2021/07/04 07:26:55;;;;;;;2.33;2.03;;;;;;;19.30;71.24;99591.88;5079056;28;20040;-76
2021/07/04 07:29:21;;;;;;;4.68;2.30;;;;;;;19.03;71.89;99587.31;5076285;28;20260;-72
2021/07/04 07:31:47;;;;;;;2.97;2.10;;;;;;;19.18;72.35;99592.59;5060335;28;20028;-77
2021/07/04 07:34:13;;;;;;;7.03;2.78;;;;;;;19.21;72.11;99587.16;5060408;28;20043;-74
2021/07/04 07:36:39;;;;;;;3.90;2.25;;;;;;;19.12;71.87;99594.63;5077062;28;20025;-73
2021/07/04 07:39:06;;;;;;;3.33;2.25;;;;;;;19.37;70.86;99590.59;5078575;28;20106;-76
2021/07/04 07:41:33;;;;;;;3.40;2.22;;;;;;;19.48;71.40;99587.28;5075313;28;20045;-73
2021/07/04 07:43:59;;;;;;;2.75;2.25;;;;;;;19.30;70.58;99581.38;5078200;28;20040;-77
2021/07/04 07:46:25;;;;;;;2.75;1.90;;;;;;;19.21;70.25;99587.16;5076504;28;20048;-76
2021/07/04 07:48:51;;;;;;;2.33;1.92;;;;;;;19.28;70.50;99583.22;5058056;28;20321;-76
2021/07/04 07:51:17;;;;;;;3.25;1.77;;;;;;;19.46;69.15;99582.13;5078485;28;20052;-75
2021/07/04 07:53:44;;;;;;;2.90;1.88;;;;;;;19.69;69.10;99563.31;5076976;28;20275;-74
2021/07/04 07:56:10;;;;;;;3.35;1.98;;;;;;;19.90;68.05;99574.31;5078304;28;20050;-73
2021/07/04 07:58:36;;;;;;;2.38;1.80;;;;;;;20.23;68.52;99581.03;5076032;28;20029;-75
2021/07/04 08:01:02;;;;;;;3.30;2.25;;;;;;;20.31;68.93;99576.13;5078334;28;20332;-75
2021/07/04 08:03:28;;;;;;;3.30;1.70;;;;;;;20.10;67.73;99576.53;5075869;28;20035;-77
2021/07/04 08:05:54;;;;;;;2.70;1.40;;;;;;;19.99;65.59;99578.97;5076405;28;20229;-72
2021/07/04 08:08:20;;;;;;;3.58;1.67;;;;;;;20.27;66.35;99566.75;5076118;28;20045;-75
2021/07/04 08:10:45;;;;;;;2.05;1.70;;;;;;;20.22;66.45;99571.44;5076685;28;20268;-74
2021/07/04 08:13:11;;;;;;;2.22;1.60;;;;;;;20.27;66.59;99572.00;5074163;28;20024;-74
2021/07/04 08:15:38;;;;;;;3.08;1.40;;;;;;;20.17;67.02;99553.31;5075970;28;20325;-75
2021/07/04 08:18:03;;;;;;;2.88;1.58;;;;;;;20.39;66.95;99570.38;5074065;28;20058;-75
2021/07/04 08:20:31;;;;;;;1.70;1.50;;;;;;;20.43;66.87;99572.69;5076395;28;20242;-77
2021/07/04 08:22:57;;;;;;;2.40;1.80;;;;;;;20.35;66.58;99575.81;5078525;28;20300;-76
2021/07/04 08:25:23;;;;;;;2.15;1.70;;;;;;;20.46;66.50;99567.22;5075227;28;20054;-75
2021/07/04 08:27:49;;;;;;;3.58;3.25;;;;;;;20.46;67.52;99569.84;5081655;28;20020;-75
2021/07/04 08:30:16;;;;;;;6.97;2.13;;;;;;;20.34;67.60;99568.88;5082461;28;20263;-75
2021/07/04 08:32:42;;;;;;;4.15;2.20;;;;;;;20.16;68.17;99562.16;5082507;28;20048;-76
2021/07/04 08:35:09;;;;;;;7.07;2.75;;;;;;;20.40;67.56;99578.16;5057832;28;20346;-76
2021/07/04 08:37:36;;;;;;;6.82;2.00;;;;;;;20.07;67.37;99587.25;5081408;28;20044;-72
2021/07/04 08:40:04;;;;;;;2.58;2.15;;;;;;;20.13;67.64;99576.31;5078075;28;20067;-76
2021/07/04 08:42:30;;;;;;;3.35;2.45;;;;;;;20.40;67.50;99575.53;5079573;28;20048;-76
2021/07/04 08:44:56;;;;;;;3.28;2.20;;;;;;;20.38;67.61;99573.94;5075734;28;20043;-74
2021/07/04 08:47:24;;;;;;;2.30;2.10;;;;;;;20.11;66.80;99525.63;5081878;28;20079;-75
2021/07/04 08:49:52;;;;;;;3.17;2.22;;;;;;;20.50;66.69;99575.78;5082386;28;20056;-76
2021/07/04 08:52:19;;;;;;;3.28;2.40;;;;;;;20.59;66.78;99562.00;5081364;28;20270;-76
2021/07/04 08:54:45;;;;;;;2.67;2.17;;;;;;;20.43;66.89;99582.38;5075210;28;20048;-76
2021/07/04 08:57:12;;;;;;;2.40;1.98;;;;;;;20.56;66.64;99571.91;5082227;28;20067;-75
2021/07/04 08:59:39;;;;;;;2.25;2.05;;;;;;;20.70;66.94;99569.25;5079664;28;20063;-75
2021/07/04 09:02:10;;;;;;;2.78;2.15;;;;;;;20.43;67.14;99577.94;5070123;28;20048;-74
2021/07/04 09:04:37;;;;;;;3.20;2.13;;;;;;;20.62;67.53;99572.38;5074022;28;20337;-77
2021/07/04 09:07:03;;;;;;;2.35;2.00;;;;;;;20.61;66.70;99565.41;5082297;28;20079;-75
2021/07/04 09:09:31;;;;;;;4.82;1.98;;;;;;;20.64;65.87;99564.38;5082261;28;20055;-76
2021/07/04 09:12:10;;;;;;;4.60;2.08;;;;;;;20.60;66.25;99566.34;5082159;28;20052;-77
2021/07/04 09:14:44;;;;;;;2.67;1.58;;;;;;;20.38;65.84;99524.81;5059249;28;20063;-74
2021/07/04 09:17:12;;;;;;;2.97;1.65;;;;;;;20.45;66.51;99583.13;5082035;28;20063;-72
2021/07/04 09:19:51;;;;;;;2.47;1.80;;;;;;;20.47;66.20;99561.03;5082018;28;20071;-74
2021/07/04 09:22:16;;;;;;;6.35;3.83;;;;;;;20.81;67.12;99574.66;5081674;28;20263;-75
2021/07/04 09:24:43;;;;;;;1.67;1.58;;;;;;;20.79;65.85;99575.69;5075292;28;20028;-76
2021/07/04 09:27:14;;;;;;;2.08;1.80;;;;;;;20.58;65.74;99522.63;5074279;28;20060;-75
2021/07/04 09:29:49;;;;;;;3.13;1.90;;;;;;;20.53;65.79;99552.72;5074288;28;20040;-76
2021/07/04 09:32:26;;;;;;;2.50;1.52;;;;;;;20.84;65.77;99577.06;5079337;28;20052;-75
2021/07/04 09:34:57;;;;;;;3.00;1.80;;;;;;;20.93;65.26;99569.53;5074687;28;20052;-74
2021/07/04 09:37:42;;;;;;;1.92;1.73;;;;;;;20.57;66.19;99558.66;5075658;28;20060;-77
2021/07/04 09:40:17;;;;;;;1.83;1.70;;;;;;;20.63;66.21;99578.47;5076375;28;20063;-73
2021/07/04 09:43:04;;;;;;;2.35;1.70;;;;;;;20.42;66.76;99571.03;5075976;28;20055;-72
2021/07/04 09:45:49;;;;;;;1.70;1.60;;;;;;;20.71;66.35;99577.97;5078126;28;20309;-74
2021/07/04 09:48:21;;;;;;;1.95;1.85;;;;;;;20.59;66.40;99525.16;5077197;28;20049;-75
2021/07/04 09:50:51;;;;;;;3.60;1.67;;;;;;;21.02;66.44;99574.16;5074759;28;20050;-75
2021/07/04 09:53:19;;;;;;;3.55;2.20;;;;;;;21.11;66.68;99564.81;5078422;28;20036;-75
2021/07/04 09:55:50;;;;;;;2.30;1.58;;;;;;;21.14;66.23;99569.88;5075643;28;20044;-75
2021/07/04 09:58:18;;;;;;;2.53;2.30;;;;;;;21.24;65.89;99570.09;5060403;28;20043;-74
2021/07/04 10:00:45;;;;;;;2.55;2.15;;;;;;;21.06;66.16;99522.97;5074356;28;20729;-74
2021/07/04 10:03:20;;;;;;;2.47;2.25;;;;;;;21.21;66.31;99514.03;5079600;28;20048;-75
2021/07/04 10:05:54;;;;;;;3.03;2.15;;;;;;;21.23;66.22;99557.88;5076443;28;20068;-72
2021/07/04 10:08:29;;;;;;;3.70;2.58;;;;;;;21.00;66.42;99521.59;5075592;28;20064;-75
2021/07/04 10:10:58;;;;;;;3.67;2.33;;;;;;;21.24;66.26;99563.03;5057904;28;20051;-72
2021/07/04 10:13:24;;;;;;;4.82;2.50;;;;;;;21.33;66.20;99553.66;5077898;28;20289;-74
2021/07/04 10:15:51;;;;;;;2.70;2.50;;;;;;;21.52;65.59;99551.47;5077271;28;20269;-73
2021/07/04 10:18:18;;;;;;;4.03;2.40;;;;;;;21.54;65.94;99564.56;5078950;28;20044;-76
2021/07/04 10:20:45;;;;;;;2.97;2.47;;;;;;;21.84;65.13;99550.19;5079964;28;20037;-74
2021/07/04 10:23:14;;;;;;;3.15;2.45;;;;;;;21.52;65.34;99556.75;5080527;28;20047;-72
2021/07/04 10:25:43;;;;;;;2.95;2.65;;;;;;;21.54;65.84;99559.28;5075988;28;20048;-74
2021/07/04 10:28:12;;;;;;;2.78;2.25;;;;;;;21.71;66.20;99563.38;5061591;28;20036;-76
2021/07/04 10:30:39;;;;;;;3.20;2.50;;;;;;;21.63;66.23;99563.06;5057713;28;20037;-75
2021/07/04 10:33:07;;;;;;;2.75;2.50;;;;;;;21.56;65.84;99562.63;5079459;28;20040;-77
2021/07/04 10:35:33;;;;;;;3.85;2.40;;;;;;;21.61;65.37;99571.09;5074198;28;20055;-74
2021/07/04 10:38:16;;;;;;;3.08;2.33;;;;;;;21.37;66.83;99569.16;5079503;28;20313;-75
2021/07/04 10:40:42;;;;;;;3.70;2.60;;;;;;;21.43;66.54;99574.97;5076622;28;20060;-74
2021/07/04 10:43:08;;;;;;;3.17;2.40;;;;;;;21.55;67.15;99576.78;5061548;28;20051;-74
2021/07/04 10:45:37;;;;;;;3.78;2.05;;;;;;;21.55;66.55;99568.88;5074911;28;20360;-74
2021/07/04 10:48:19;;;;;;;7.10;2.67;;;;;;;21.54;68.24;99577.72;5079167;28;20032;-75
2021/07/04 10:51:07;;;;;;;;;;;;;;;21.53;66.85;99571.63;5074766;28;20055;-75
2021/07/04 10:53:45;;;;;;;2.97;2.47;;;;;;;21.58;66.79;99571.31;5079952;28;19939;-75
2021/07/04 10:56:37;;;;;;;3.42;2.53;;;;;;;21.60;67.40;99574.66;5073300;28;20071;-75
2021/07/04 10:59:19;;;;;;;5.32;3.08;;;;;;;21.53;67.14;99571.63;5063539;28;20060;-74
2021/07/04 11:01:59;;;;;;;3.15;2.72;;;;;;;21.62;67.77;99575.41;5067900;28;20344;-75
2021/07/04 11:04:31;;;;;;;4.13;3.08;;;;;;;21.41;67.51;99579.50;5069779;28;20037;-75
2021/07/04 11:07:01;;;;;;;3.55;2.97;;;;;;;21.13;67.41;99547.94;5070102;28;20071;-73
2021/07/04 11:09:53;;;;;;;3.03;2.67;;;;;;;21.38;67.27;99583.19;5064693;28;20356;-74
2021/07/04 11:12:34;;;;;;;2.83;2.17;;;;;;;21.43;66.78;99583.69;5063280;28;20298;-76
2021/07/04 11:15:15;;;;;;;4.22;3.33;;;;;;;21.48;67.74;99586.03;5072136;28;20273;-73
2021/07/04 11:17:56;;;;;;;3.03;2.72;;;;;;;21.62;66.98;99585.09;5063684;28;20067;-75
2021/07/04 11:20:22;;;;;;;4.40;2.50;;;;;;;21.74;67.85;99576.34;5066607;28;20055;-75
2021/07/04 11:23:05;;;;;;;3.45;2.72;;;;;;;21.70;68.36;99574.88;5082172;28;20044;-75
2021/07/04 11:25:41;;;;;;;5.25;2.92;;;;;;;21.69;68.11;99562.63;5048102;28;20056;-75
2021/07/04 11:28:16;;;;;;;4.38;3.00;;;;;;;21.83;68.08;99564.31;5063741;28;20056;-74
2021/07/04 11:30:42;;;;;;;3.15;2.55;;;;;;;21.88;68.32;99564.84;5063374;28;20053;-74
2021/07/04 11:33:33;;;;;;;3.75;3.13;;;;;;;21.26;67.59;99520.78;5063383;28;20282;-72
2021/07/04 11:36:00;;;;;;;5.70;2.75;;;;;;;21.72;67.81;99565.06;5062989;28;20063;-74
2021/07/04 11:38:29;;;;;;;5.43;3.03;;;;;;;21.59;67.95;99557.19;5063140;28;20040;-74